sensor_id;sensor_type;location;lat;lon;timestamp;P1;durP1;ratioP1;P2;durP2;ratioP2
5127;SDS011;2582;48.770;9.190;2023-09-30T00:02:06;6.40;;;3.90;;
5127;SDS011;2582;48.770;9.190;2023-09-30T00:04:32;6.67;;;4.13;;
5127;SDS011;2582;48.770;9.190;2023-09-30T00:09:26;9.87;;;4.50;;
5127;SDS011;2582;48.770;9.190;2023-09-30T00:11:52;8.53;;;4.33;;
5127;SDS011;2582;48.770;9.190;2023-09-30T00:14:20;5.83;;;3.77;;
5127;SDS011;2582;48.770;9.190;2023-09-30T00:16:45;7.00;;;4.90;;
5127;SDS011;2582;48.770;9.190;2023-09-30T00:19:11;7.47;;;4.53;;
5127;SDS011;2582;48.770;9.190;2023-09-30T00:21:36;6.03;;;3.53;;
5127;SDS011;2582;48.770;9.190;2023-09-30T00:24:02;7.90;;;4.50;;
5127;SDS011;2582;48.770;9.190;2023-09-30T00:26:27;6.60;;;4.10;;
5127;SDS011;2582;48.770;9.190;2023-09-30T00:28:53;7.70;;;4.57;;
5127;SDS011;2582;48.770;9.190;2023-09-30T00:31:18;7.20;;;4.07;;
5127;SDS011;2582;48.770;9.190;2023-09-30T00:33:44;5.17;;;3.20;;
5127;SDS011;2582;48.770;9.190;2023-09-30T00:36:10;7.83;;;3.63;;
5127;SDS011;2582;48.770;9.190;2023-09-30T00:38:38;4.23;;;3.40;;
5127;SDS011;2582;48.770;9.190;2023-09-30T00:41:05;7.33;;;3.70;;
5127;SDS011;2582;48.770;9.190;2023-09-30T00:43:32;5.53;;;3.20;;
5127;SDS011;2582;48.770;9.190;2023-09-30T00:46:12;6.77;;;4.27;;
5127;SDS011;2582;48.770;9.190;2023-09-30T00:48:50;6.00;;;3.43;;
5127;SDS011;2582;48.770;9.190;2023-09-30T00:51:16;5.40;;;2.90;;
5127;SDS011;2582;48.770;9.190;2023-09-30T00:53:42;4.90;;;3.03;;
5127;SDS011;2582;48.770;9.190;2023-09-30T00:56:09;5.03;;;3.20;;
5127;SDS011;2582;48.770;9.190;2023-09-30T00:58:36;4.20;;;3.03;;
5127;SDS011;2582;48.770;9.190;2023-09-30T01:01:03;4.90;;;2.87;;
5127;SDS011;2582;48.770;9.190;2023-09-30T01:03:30;5.20;;;2.70;;
5127;SDS011;2582;48.770;9.190;2023-09-30T01:05:56;5.80;;;3.20;;
5127;SDS011;2582;48.770;9.190;2023-09-30T01:08:21;3.00;;;2.60;;
5127;SDS011;2582;48.770;9.190;2023-09-30T01:10:47;4.10;;;2.60;;
5127;SDS011;2582;48.770;9.190;2023-09-30T01:13:13;4.90;;;2.80;;
5127;SDS011;2582;48.770;9.190;2023-09-30T01:15:39;3.63;;;2.30;;
5127;SDS011;2582;48.770;9.190;2023-09-30T01:18:04;4.13;;;2.73;;
5127;SDS011;2582;48.770;9.190;2023-09-30T01:20:30;4.23;;;2.37;;
5127;SDS011;2582;48.770;9.190;2023-09-30T01:22:56;4.50;;;2.70;;
5127;SDS011;2582;48.770;9.190;2023-09-30T01:25:23;2.80;;;2.40;;
5127;SDS011;2582;48.770;9.190;2023-09-30T01:27:49;3.93;;;2.90;;
5127;SDS011;2582;48.770;9.190;2023-09-30T01:30:16;4.13;;;3.27;;
5127;SDS011;2582;48.770;9.190;2023-09-30T01:32:43;5.00;;;3.30;;
5127;SDS011;2582;48.770;9.190;2023-09-30T01:35:09;3.97;;;3.27;;
5127;SDS011;2582;48.770;9.190;2023-09-30T01:37:35;3.83;;;3.20;;
5127;SDS011;2582;48.770;9.190;2023-09-30T01:40:01;4.40;;;3.10;;
5127;SDS011;2582;48.770;9.190;2023-09-30T01:42:28;4.30;;;2.77;;
5127;SDS011;2582;48.770;9.190;2023-09-30T01:44:54;4.83;;;3.50;;
5127;SDS011;2582;48.770;9.190;2023-09-30T01:47:21;3.40;;;2.60;;
5127;SDS011;2582;48.770;9.190;2023-09-30T01:49:47;5.27;;;2.83;;
5127;SDS011;2582;48.770;9.190;2023-09-30T01:52:12;5.40;;;3.13;;
5127;SDS011;2582;48.770;9.190;2023-09-30T01:54:38;4.90;;;3.00;;
5127;SDS011;2582;48.770;9.190;2023-09-30T01:57:04;5.40;;;3.30;;
5127;SDS011;2582;48.770;9.190;2023-09-30T01:59:29;3.87;;;3.23;;
5127;SDS011;2582;48.770;9.190;2023-09-30T02:01:55;3.70;;;3.10;;
5127;SDS011;2582;48.770;9.190;2023-09-30T02:04:20;3.50;;;2.77;;
5127;SDS011;2582;48.770;9.190;2023-09-30T02:06:46;3.37;;;2.80;;
5127;SDS011;2582;48.770;9.190;2023-09-30T02:09:11;4.23;;;2.97;;
5127;SDS011;2582;48.770;9.190;2023-09-30T02:11:37;4.43;;;3.10;;
5127;SDS011;2582;48.770;9.190;2023-09-30T02:14:06;3.70;;;3.03;;
5127;SDS011;2582;48.770;9.190;2023-09-30T02:16:31;5.03;;;3.40;;
5127;SDS011;2582;48.770;9.190;2023-09-30T02:18:57;7.20;;;3.73;;
5127;SDS011;2582;48.770;9.190;2023-09-30T02:21:23;5.17;;;3.93;;
5127;SDS011;2582;48.770;9.190;2023-09-30T02:23:49;8.30;;;3.70;;
5127;SDS011;2582;48.770;9.190;2023-09-30T02:26:14;6.53;;;3.37;;
5127;SDS011;2582;48.770;9.190;2023-09-30T02:28:40;3.13;;;2.80;;
5127;SDS011;2582;48.770;9.190;2023-09-30T02:31:06;4.40;;;3.90;;
5127;SDS011;2582;48.770;9.190;2023-09-30T02:33:32;4.50;;;3.47;;
5127;SDS011;2582;48.770;9.190;2023-09-30T02:36:00;5.33;;;3.57;;
5127;SDS011;2582;48.770;9.190;2023-09-30T02:38:26;4.50;;;3.37;;
5127;SDS011;2582;48.770;9.190;2023-09-30T02:40:53;4.73;;;3.40;;
5127;SDS011;2582;48.770;9.190;2023-09-30T02:43:19;7.63;;;3.87;;
5127;SDS011;2582;48.770;9.190;2023-09-30T02:45:45;5.07;;;3.77;;
5127;SDS011;2582;48.770;9.190;2023-09-30T02:48:11;5.03;;;3.80;;
5127;SDS011;2582;48.770;9.190;2023-09-30T02:50:37;6.40;;;3.80;;
5127;SDS011;2582;48.770;9.190;2023-09-30T02:53:04;5.00;;;3.80;;
5127;SDS011;2582;48.770;9.190;2023-09-30T02:55:30;4.37;;;3.87;;
5127;SDS011;2582;48.770;9.190;2023-09-30T02:57:56;6.47;;;3.83;;
5127;SDS011;2582;48.770;9.190;2023-09-30T03:00:22;7.37;;;5.00;;
5127;SDS011;2582;48.770;9.190;2023-09-30T03:02:51;5.93;;;3.67;;
5127;SDS011;2582;48.770;9.190;2023-09-30T03:05:18;6.00;;;3.97;;
5127;SDS011;2582;48.770;9.190;2023-09-30T03:07:45;5.07;;;3.67;;
5127;SDS011;2582;48.770;9.190;2023-09-30T03:10:11;6.50;;;4.30;;
5127;SDS011;2582;48.770;9.190;2023-09-30T03:12:39;7.00;;;3.93;;
5127;SDS011;2582;48.770;9.190;2023-09-30T03:15:05;5.17;;;4.13;;
5127;SDS011;2582;48.770;9.190;2023-09-30T03:17:31;7.07;;;3.60;;
5127;SDS011;2582;48.770;9.190;2023-09-30T03:19:57;7.73;;;4.33;;
5127;SDS011;2582;48.770;9.190;2023-09-30T03:22:23;6.90;;;4.10;;
5127;SDS011;2582;48.770;9.190;2023-09-30T03:24:52;7.17;;;4.00;;
5127;SDS011;2582;48.770;9.190;2023-09-30T03:27:18;6.37;;;4.37;;
5127;SDS011;2582;48.770;9.190;2023-09-30T03:29:45;7.03;;;4.17;;
5127;SDS011;2582;48.770;9.190;2023-09-30T03:32:11;4.13;;;3.57;;
5127;SDS011;2582;48.770;9.190;2023-09-30T03:34:36;5.00;;;3.67;;
5127;SDS011;2582;48.770;9.190;2023-09-30T03:37:02;7.30;;;3.70;;
5127;SDS011;2582;48.770;9.190;2023-09-30T03:39:31;6.87;;;4.33;;
5127;SDS011;2582;48.770;9.190;2023-09-30T03:41:57;4.97;;;3.33;;
5127;SDS011;2582;48.770;9.190;2023-09-30T03:44:24;6.60;;;3.37;;
5127;SDS011;2582;48.770;9.190;2023-09-30T03:46:50;7.67;;;3.87;;
5127;SDS011;2582;48.770;9.190;2023-09-30T03:49:17;5.03;;;3.03;;
5127;SDS011;2582;48.770;9.190;2023-09-30T03:51:44;4.83;;;3.80;;
5127;SDS011;2582;48.770;9.190;2023-09-30T03:54:11;4.67;;;3.67;;
5127;SDS011;2582;48.770;9.190;2023-09-30T03:56:37;5.90;;;3.83;;
5127;SDS011;2582;48.770;9.190;2023-09-30T03:59:06;8.00;;;3.80;;
5127;SDS011;2582;48.770;9.190;2023-09-30T04:01:33;4.97;;;3.23;;
5127;SDS011;2582;48.770;9.190;2023-09-30T04:03:59;8.20;;;4.10;;
5127;SDS011;2582;48.770;9.190;2023-09-30T04:06:25;4.40;;;3.40;;
5127;SDS011;2582;48.770;9.190;2023-09-30T04:08:51;6.40;;;4.30;;
5127;SDS011;2582;48.770;9.190;2023-09-30T04:11:16;5.33;;;3.70;;
5127;SDS011;2582;48.770;9.190;2023-09-30T04:13:44;5.33;;;3.80;;
5127;SDS011;2582;48.770;9.190;2023-09-30T04:16:10;6.50;;;3.63;;
5127;SDS011;2582;48.770;9.190;2023-09-30T04:18:36;5.30;;;3.43;;
5127;SDS011;2582;48.770;9.190;2023-09-30T04:21:03;7.60;;;3.40;;
5127;SDS011;2582;48.770;9.190;2023-09-30T04:23:29;6.95;;;3.80;;
5127;SDS011;2582;48.770;9.190;2023-09-30T04:25:55;5.07;;;3.93;;
5127;SDS011;2582;48.770;9.190;2023-09-30T04:28:20;6.77;;;3.87;;
5127;SDS011;2582;48.770;9.190;2023-09-30T04:30:47;5.20;;;4.00;;
5127;SDS011;2582;48.770;9.190;2023-09-30T04:33:16;5.60;;;3.83;;
5127;SDS011;2582;48.770;9.190;2023-09-30T04:35:45;6.80;;;4.47;;
5127;SDS011;2582;48.770;9.190;2023-09-30T04:38:11;6.57;;;3.97;;
5127;SDS011;2582;48.770;9.190;2023-09-30T04:40:38;6.20;;;4.30;;
5127;SDS011;2582;48.770;9.190;2023-09-30T04:43:04;5.00;;;4.20;;
5127;SDS011;2582;48.770;9.190;2023-09-30T04:45:30;6.37;;;4.07;;
5127;SDS011;2582;48.770;9.190;2023-09-30T04:47:56;7.17;;;4.80;;
5127;SDS011;2582;48.770;9.190;2023-09-30T04:50:21;6.60;;;3.80;;
5127;SDS011;2582;48.770;9.190;2023-09-30T04:52:47;4.30;;;3.63;;
5127;SDS011;2582;48.770;9.190;2023-09-30T04:55:16;6.67;;;4.77;;
5127;SDS011;2582;48.770;9.190;2023-09-30T04:57:43;5.63;;;4.10;;
5127;SDS011;2582;48.770;9.190;2023-09-30T05:00:16;5.73;;;4.47;;
5127;SDS011;2582;48.770;9.190;2023-09-30T05:02:44;4.03;;;3.23;;
5127;SDS011;2582;48.770;9.190;2023-09-30T05:05:12;5.60;;;3.70;;
5127;SDS011;2582;48.770;9.190;2023-09-30T05:07:39;6.20;;;3.87;;
5127;SDS011;2582;48.770;9.190;2023-09-30T05:10:06;6.00;;;4.17;;
5127;SDS011;2582;48.770;9.190;2023-09-30T05:12:36;4.53;;;3.93;;
5127;SDS011;2582;48.770;9.190;2023-09-30T05:15:02;5.50;;;3.97;;
5127;SDS011;2582;48.770;9.190;2023-09-30T05:17:31;4.30;;;3.83;;
5127;SDS011;2582;48.770;9.190;2023-09-30T05:19:56;5.60;;;3.23;;
5127;SDS011;2582;48.770;9.190;2023-09-30T05:22:22;5.77;;;4.10;;
5127;SDS011;2582;48.770;9.190;2023-09-30T05:24:52;5.40;;;3.97;;
5127;SDS011;2582;48.770;9.190;2023-09-30T05:27:18;4.70;;;3.20;;
5127;SDS011;2582;48.770;9.190;2023-09-30T05:29:44;6.60;;;3.90;;
5127;SDS011;2582;48.770;9.190;2023-09-30T05:32:10;6.23;;;3.70;;
5127;SDS011;2582;48.770;9.190;2023-09-30T05:34:36;5.80;;;3.90;;
5127;SDS011;2582;48.770;9.190;2023-09-30T05:37:02;5.27;;;3.70;;
5127;SDS011;2582;48.770;9.190;2023-09-30T05:39:28;5.00;;;3.57;;
5127;SDS011;2582;48.770;9.190;2023-09-30T05:41:53;4.87;;;3.60;;
5127;SDS011;2582;48.770;9.190;2023-09-30T05:44:20;4.80;;;3.63;;
5127;SDS011;2582;48.770;9.190;2023-09-30T05:46:46;4.90;;;3.60;;
5127;SDS011;2582;48.770;9.190;2023-09-30T05:49:12;8.80;;;4.30;;
5127;SDS011;2582;48.770;9.190;2023-09-30T05:51:38;6.07;;;3.47;;
5127;SDS011;2582;48.770;9.190;2023-09-30T05:54:05;6.10;;;4.50;;
5127;SDS011;2582;48.770;9.190;2023-09-30T05:56:34;7.07;;;4.70;;
5127;SDS011;2582;48.770;9.190;2023-09-30T05:59:02;4.30;;;3.70;;
5127;SDS011;2582;48.770;9.190;2023-09-30T06:01:28;5.40;;;3.40;;
5127;SDS011;2582;48.770;9.190;2023-09-30T06:03:54;7.23;;;3.97;;
5127;SDS011;2582;48.770;9.190;2023-09-30T06:06:20;4.27;;;3.70;;
5127;SDS011;2582;48.770;9.190;2023-09-30T06:08:45;6.63;;;3.97;;
5127;SDS011;2582;48.770;9.190;2023-09-30T06:11:21;6.27;;;4.23;;
5127;SDS011;2582;48.770;9.190;2023-09-30T06:13:50;6.43;;;4.73;;
5127;SDS011;2582;48.770;9.190;2023-09-30T06:16:18;7.90;;;4.30;;
5127;SDS011;2582;48.770;9.190;2023-09-30T06:18:43;7.60;;;4.90;;
5127;SDS011;2582;48.770;9.190;2023-09-30T06:21:10;6.30;;;4.00;;
5127;SDS011;2582;48.770;9.190;2023-09-30T06:23:36;7.37;;;4.47;;
5127;SDS011;2582;48.770;9.190;2023-09-30T06:26:02;6.93;;;4.03;;
5127;SDS011;2582;48.770;9.190;2023-09-30T06:28:28;10.70;;;4.90;;
5127;SDS011;2582;48.770;9.190;2023-09-30T06:30:55;4.07;;;3.67;;
5127;SDS011;2582;48.770;9.190;2023-09-30T06:33:21;7.67;;;4.20;;
5127;SDS011;2582;48.770;9.190;2023-09-30T06:35:47;6.90;;;4.23;;
5127;SDS011;2582;48.770;9.190;2023-09-30T06:38:18;8.87;;;4.50;;
5127;SDS011;2582;48.770;9.190;2023-09-30T06:40:45;4.53;;;4.00;;
5127;SDS011;2582;48.770;9.190;2023-09-30T06:43:14;7.73;;;4.90;;
5127;SDS011;2582;48.770;9.190;2023-09-30T06:45:43;6.67;;;4.40;;
5127;SDS011;2582;48.770;9.190;2023-09-30T06:48:09;9.77;;;5.40;;
5127;SDS011;2582;48.770;9.190;2023-09-30T06:50:38;6.30;;;4.83;;
5127;SDS011;2582;48.770;9.190;2023-09-30T06:53:05;5.77;;;4.50;;
5127;SDS011;2582;48.770;9.190;2023-09-30T06:55:31;5.90;;;4.83;;
5127;SDS011;2582;48.770;9.190;2023-09-30T06:57:57;10.97;;;5.33;;
5127;SDS011;2582;48.770;9.190;2023-09-30T07:00:22;7.53;;;4.30;;
5127;SDS011;2582;48.770;9.190;2023-09-30T07:02:48;6.00;;;4.57;;
5127;SDS011;2582;48.770;9.190;2023-09-30T07:05:14;9.00;;;5.03;;
5127;SDS011;2582;48.770;9.190;2023-09-30T07:07:40;7.40;;;5.00;;
5127;SDS011;2582;48.770;9.190;2023-09-30T07:10:10;8.53;;;4.60;;
5127;SDS011;2582;48.770;9.190;2023-09-30T07:12:36;5.47;;;4.37;;
5127;SDS011;2582;48.770;9.190;2023-09-30T07:15:02;5.30;;;3.83;;
5127;SDS011;2582;48.770;9.190;2023-09-30T07:17:29;9.77;;;4.57;;
5127;SDS011;2582;48.770;9.190;2023-09-30T07:19:55;6.57;;;4.70;;
5127;SDS011;2582;48.770;9.190;2023-09-30T07:22:20;4.77;;;4.30;;
5127;SDS011;2582;48.770;9.190;2023-09-30T07:24:46;8.70;;;5.20;;
5127;SDS011;2582;48.770;9.190;2023-09-30T07:27:11;6.87;;;4.67;;
5127;SDS011;2582;48.770;9.190;2023-09-30T07:29:37;11.17;;;5.00;;
5127;SDS011;2582;48.770;9.190;2023-09-30T07:32:02;8.40;;;5.00;;
5127;SDS011;2582;48.770;9.190;2023-09-30T07:34:28;5.23;;;4.20;;
5127;SDS011;2582;48.770;9.190;2023-09-30T07:36:54;11.17;;;5.20;;
5127;SDS011;2582;48.770;9.190;2023-09-30T07:39:20;7.20;;;5.07;;
5127;SDS011;2582;48.770;9.190;2023-09-30T07:41:46;8.20;;;5.80;;
5127;SDS011;2582;48.770;9.190;2023-09-30T07:44:11;6.53;;;4.57;;
5127;SDS011;2582;48.770;9.190;2023-09-30T07:46:37;6.93;;;4.27;;
5127;SDS011;2582;48.770;9.190;2023-09-30T07:49:02;6.73;;;4.33;;
5127;SDS011;2582;48.770;9.190;2023-09-30T07:51:28;8.00;;;5.40;;
5127;SDS011;2582;48.770;9.190;2023-09-30T07:53:54;6.00;;;5.13;;
5127;SDS011;2582;48.770;9.190;2023-09-30T07:56:21;7.20;;;5.20;;
5127;SDS011;2582;48.770;9.190;2023-09-30T07:58:47;6.60;;;4.20;;
5127;SDS011;2582;48.770;9.190;2023-09-30T08:01:13;5.60;;;5.00;;
5127;SDS011;2582;48.770;9.190;2023-09-30T08:03:40;8.07;;;5.57;;
5127;SDS011;2582;48.770;9.190;2023-09-30T08:06:06;8.27;;;4.87;;
5127;SDS011;2582;48.770;9.190;2023-09-30T08:08:33;13.20;;;4.93;;
5127;SDS011;2582;48.770;9.190;2023-09-30T08:11:00;7.50;;;5.30;;
5127;SDS011;2582;48.770;9.190;2023-09-30T08:13:25;6.83;;;5.27;;
5127;SDS011;2582;48.770;9.190;2023-09-30T08:15:51;7.47;;;4.50;;
5127;SDS011;2582;48.770;9.190;2023-09-30T08:18:18;7.57;;;5.03;;
5127;SDS011;2582;48.770;9.190;2023-09-30T08:20:43;7.77;;;6.20;;
5127;SDS011;2582;48.770;9.190;2023-09-30T08:23:09;7.37;;;5.40;;
5127;SDS011;2582;48.770;9.190;2023-09-30T08:25:36;7.07;;;5.10;;
5127;SDS011;2582;48.770;9.190;2023-09-30T08:28:03;7.73;;;5.37;;
5127;SDS011;2582;48.770;9.190;2023-09-30T08:30:29;12.60;;;6.40;;
5127;SDS011;2582;48.770;9.190;2023-09-30T08:32:55;6.70;;;4.67;;
5127;SDS011;2582;48.770;9.190;2023-09-30T08:35:21;6.63;;;5.37;;
5127;SDS011;2582;48.770;9.190;2023-09-30T08:37:46;9.13;;;5.13;;
5127;SDS011;2582;48.770;9.190;2023-09-30T08:40:12;17.23;;;5.70;;
5127;SDS011;2582;48.770;9.190;2023-09-30T08:42:41;7.47;;;5.60;;
5127;SDS011;2582;48.770;9.190;2023-09-30T08:45:08;8.33;;;6.23;;
5127;SDS011;2582;48.770;9.190;2023-09-30T08:47:35;8.83;;;6.87;;
5127;SDS011;2582;48.770;9.190;2023-09-30T08:50:01;8.67;;;6.00;;
5127;SDS011;2582;48.770;9.190;2023-09-30T08:52:33;9.77;;;6.30;;
5127;SDS011;2582;48.770;9.190;2023-09-30T08:54:59;7.40;;;5.90;;
5127;SDS011;2582;48.770;9.190;2023-09-30T08:57:26;7.20;;;6.10;;
5127;SDS011;2582;48.770;9.190;2023-09-30T08:59:53;8.63;;;6.23;;
5127;SDS011;2582;48.770;9.190;2023-09-30T09:02:19;7.17;;;5.30;;
5127;SDS011;2582;48.770;9.190;2023-09-30T09:04:47;11.23;;;6.73;;
5127;SDS011;2582;48.770;9.190;2023-09-30T09:07:14;7.63;;;5.40;;
5127;SDS011;2582;48.770;9.190;2023-09-30T09:09:40;12.90;;;6.13;;
5127;SDS011;2582;48.770;9.190;2023-09-30T09:12:05;9.53;;;5.30;;
5127;SDS011;2582;48.770;9.190;2023-09-30T09:14:38;7.17;;;6.20;;
5127;SDS011;2582;48.770;9.190;2023-09-30T09:17:06;11.10;;;6.80;;
5127;SDS011;2582;48.770;9.190;2023-09-30T09:19:33;6.00;;;5.17;;
5127;SDS011;2582;48.770;9.190;2023-09-30T09:21:59;5.83;;;4.00;;
5127;SDS011;2582;48.770;9.190;2023-09-30T09:24:26;6.87;;;5.00;;
5127;SDS011;2582;48.770;9.190;2023-09-30T09:26:54;8.30;;;5.77;;
5127;SDS011;2582;48.770;9.190;2023-09-30T09:29:29;8.37;;;4.80;;
5127;SDS011;2582;48.770;9.190;2023-09-30T09:32:06;5.93;;;4.90;;
5127;SDS011;2582;48.770;9.190;2023-09-30T09:34:33;8.13;;;5.57;;
5127;SDS011;2582;48.770;9.190;2023-09-30T09:36:58;9.03;;;5.70;;
5127;SDS011;2582;48.770;9.190;2023-09-30T09:39:30;9.03;;;5.73;;
5127;SDS011;2582;48.770;9.190;2023-09-30T09:41:56;7.70;;;5.90;;
5127;SDS011;2582;48.770;9.190;2023-09-30T09:44:23;6.37;;;5.10;;
5127;SDS011;2582;48.770;9.190;2023-09-30T09:46:52;6.23;;;4.77;;
5127;SDS011;2582;48.770;9.190;2023-09-30T09:49:18;9.00;;;5.40;;
5127;SDS011;2582;48.770;9.190;2023-09-30T09:51:45;7.00;;;4.43;;
5127;SDS011;2582;48.770;9.190;2023-09-30T09:54:12;10.17;;;6.17;;
5127;SDS011;2582;48.770;9.190;2023-09-30T09:56:39;7.70;;;4.77;;
5127;SDS011;2582;48.770;9.190;2023-09-30T09:59:06;8.10;;;5.70;;
5127;SDS011;2582;48.770;9.190;2023-09-30T10:01:34;6.93;;;4.43;;
5127;SDS011;2582;48.770;9.190;2023-09-30T10:04:01;8.20;;;5.07;;
5127;SDS011;2582;48.770;9.190;2023-09-30T10:06:27;6.83;;;5.20;;
5127;SDS011;2582;48.770;9.190;2023-09-30T10:08:53;7.83;;;5.83;;
5127;SDS011;2582;48.770;9.190;2023-09-30T10:11:21;8.30;;;4.77;;
5127;SDS011;2582;48.770;9.190;2023-09-30T10:13:51;7.53;;;5.37;;
5127;SDS011;2582;48.770;9.190;2023-09-30T10:19:07;6.10;;;5.10;;
5127;SDS011;2582;48.770;9.190;2023-09-30T10:21:32;6.70;;;4.63;;
5127;SDS011;2582;48.770;9.190;2023-09-30T10:35:20;7.90;;;4.20;;
5127;SDS011;2582;48.770;9.190;2023-09-30T10:37:46;6.63;;;5.40;;
5127;SDS011;2582;48.770;9.190;2023-09-30T10:40:28;8.47;;;5.70;;
5127;SDS011;2582;48.770;9.190;2023-09-30T10:42:56;9.47;;;5.20;;
5127;SDS011;2582;48.770;9.190;2023-09-30T10:51:12;9.40;;;5.87;;
5127;SDS011;2582;48.770;9.190;2023-09-30T10:53:41;6.03;;;4.67;;
5127;SDS011;2582;48.770;9.190;2023-09-30T10:56:08;7.03;;;4.90;;
5127;SDS011;2582;48.770;9.190;2023-09-30T10:58:43;5.97;;;5.27;;
5127;SDS011;2582;48.770;9.190;2023-09-30T11:01:10;8.50;;;5.40;;
5127;SDS011;2582;48.770;9.190;2023-09-30T11:03:38;7.30;;;5.30;;
5127;SDS011;2582;48.770;9.190;2023-09-30T11:06:04;8.17;;;5.80;;
5127;SDS011;2582;48.770;9.190;2023-09-30T11:08:30;6.97;;;5.60;;
5127;SDS011;2582;48.770;9.190;2023-09-30T11:10:56;8.90;;;5.63;;
5127;SDS011;2582;48.770;9.190;2023-09-30T11:13:22;10.40;;;5.97;;
5127;SDS011;2582;48.770;9.190;2023-09-30T11:15:48;7.93;;;5.43;;
5127;SDS011;2582;48.770;9.190;2023-09-30T11:18:26;7.60;;;5.23;;
5127;SDS011;2582;48.770;9.190;2023-09-30T11:20:53;6.70;;;5.60;;
5127;SDS011;2582;48.770;9.190;2023-09-30T11:23:29;10.03;;;5.60;;
5127;SDS011;2582;48.770;9.190;2023-09-30T11:25:55;6.50;;;4.87;;
5127;SDS011;2582;48.770;9.190;2023-09-30T11:28:21;8.10;;;5.20;;
5127;SDS011;2582;48.770;9.190;2023-09-30T11:30:57;8.40;;;5.93;;
5127;SDS011;2582;48.770;9.190;2023-09-30T11:33:24;9.13;;;5.90;;
5127;SDS011;2582;48.770;9.190;2023-09-30T11:36:00;10.10;;;5.80;;
5127;SDS011;2582;48.770;9.190;2023-09-30T11:38:28;10.30;;;5.93;;
5127;SDS011;2582;48.770;9.190;2023-09-30T11:41:04;8.93;;;5.67;;
5127;SDS011;2582;48.770;9.190;2023-09-30T11:43:32;12.17;;;6.60;;
5127;SDS011;2582;48.770;9.190;2023-09-30T11:46:11;8.17;;;6.10;;
5127;SDS011;2582;48.770;9.190;2023-09-30T11:48:39;9.33;;;5.10;;
5127;SDS011;2582;48.770;9.190;2023-09-30T11:51:21;7.37;;;4.97;;
5127;SDS011;2582;48.770;9.190;2023-09-30T11:53:49;6.43;;;4.90;;
5127;SDS011;2582;48.770;9.190;2023-09-30T11:56:15;7.93;;;5.17;;
5127;SDS011;2582;48.770;9.190;2023-09-30T11:58:41;8.37;;;5.57;;
5127;SDS011;2582;48.770;9.190;2023-09-30T12:01:07;8.30;;;5.67;;
5127;SDS011;2582;48.770;9.190;2023-09-30T12:03:35;8.10;;;5.33;;
5127;SDS011;2582;48.770;9.190;2023-09-30T12:06:04;9.57;;;5.07;;
5127;SDS011;2582;48.770;9.190;2023-09-30T12:08:38;9.07;;;5.90;;
5127;SDS011;2582;48.770;9.190;2023-09-30T12:11:07;9.47;;;5.63;;
5127;SDS011;2582;48.770;9.190;2023-09-30T12:13:33;6.10;;;4.37;;
5127;SDS011;2582;48.770;9.190;2023-09-30T12:15:58;7.77;;;5.33;;
5127;SDS011;2582;48.770;9.190;2023-09-30T12:18:24;9.33;;;5.57;;
5127;SDS011;2582;48.770;9.190;2023-09-30T12:20:49;8.73;;;6.17;;
5127;SDS011;2582;48.770;9.190;2023-09-30T12:23:17;7.97;;;5.90;;
5127;SDS011;2582;48.770;9.190;2023-09-30T12:25:43;7.80;;;5.73;;
5127;SDS011;2582;48.770;9.190;2023-09-30T12:28:09;6.43;;;4.93;;
5127;SDS011;2582;48.770;9.190;2023-09-30T12:30:35;9.20;;;5.77;;
5127;SDS011;2582;48.770;9.190;2023-09-30T12:33:00;6.57;;;4.70;;
5127;SDS011;2582;48.770;9.190;2023-09-30T12:35:26;7.97;;;5.30;;
5127;SDS011;2582;48.770;9.190;2023-09-30T12:37:52;8.60;;;5.53;;
5127;SDS011;2582;48.770;9.190;2023-09-30T12:40:18;8.63;;;5.50;;
5127;SDS011;2582;48.770;9.190;2023-09-30T12:42:43;9.47;;;5.70;;
5127;SDS011;2582;48.770;9.190;2023-09-30T12:45:10;8.53;;;4.97;;
5127;SDS011;2582;48.770;9.190;2023-09-30T12:47:36;6.83;;;4.83;;
5127;SDS011;2582;48.770;9.190;2023-09-30T12:50:01;7.60;;;5.33;;
5127;SDS011;2582;48.770;9.190;2023-09-30T12:52:28;9.50;;;5.77;;
5127;SDS011;2582;48.770;9.190;2023-09-30T12:54:55;7.97;;;6.03;;
5127;SDS011;2582;48.770;9.190;2023-09-30T12:57:21;8.20;;;5.90;;
5127;SDS011;2582;48.770;9.190;2023-09-30T12:59:46;7.43;;;5.50;;
5127;SDS011;2582;48.770;9.190;2023-09-30T13:02:14;8.40;;;5.67;;
5127;SDS011;2582;48.770;9.190;2023-09-30T13:04:40;10.30;;;5.20;;
5127;SDS011;2582;48.770;9.190;2023-09-30T13:07:08;7.13;;;4.90;;
5127;SDS011;2582;48.770;9.190;2023-09-30T13:09:35;7.47;;;5.07;;
5127;SDS011;2582;48.770;9.190;2023-09-30T13:12:01;7.37;;;5.13;;
5127;SDS011;2582;48.770;9.190;2023-09-30T13:14:28;6.63;;;4.80;;
5127;SDS011;2582;48.770;9.190;2023-09-30T13:16:53;6.80;;;5.17;;
5127;SDS011;2582;48.770;9.190;2023-09-30T13:19:19;7.87;;;5.70;;
5127;SDS011;2582;48.770;9.190;2023-09-30T13:21:50;8.77;;;5.00;;
5127;SDS011;2582;48.770;9.190;2023-09-30T13:24:18;9.47;;;6.10;;
5127;SDS011;2582;48.770;9.190;2023-09-30T13:26:44;10.83;;;5.93;;
5127;SDS011;2582;48.770;9.190;2023-09-30T13:29:10;7.37;;;5.30;;
5127;SDS011;2582;48.770;9.190;2023-09-30T13:31:37;5.77;;;4.70;;
5127;SDS011;2582;48.770;9.190;2023-09-30T13:34:03;7.27;;;4.87;;
5127;SDS011;2582;48.770;9.190;2023-09-30T13:36:29;9.47;;;5.20;;
5127;SDS011;2582;48.770;9.190;2023-09-30T13:38:55;9.13;;;5.87;;
5127;SDS011;2582;48.770;9.190;2023-09-30T13:41:21;7.33;;;4.90;;
5127;SDS011;2582;48.770;9.190;2023-09-30T13:43:46;8.40;;;5.70;;
5127;SDS011;2582;48.770;9.190;2023-09-30T13:46:12;7.50;;;5.60;;
5127;SDS011;2582;48.770;9.190;2023-09-30T13:48:38;6.90;;;5.20;;
5127;SDS011;2582;48.770;9.190;2023-09-30T13:51:04;6.67;;;4.70;;
5127;SDS011;2582;48.770;9.190;2023-09-30T13:53:30;8.10;;;5.43;;
5127;SDS011;2582;48.770;9.190;2023-09-30T13:55:55;8.40;;;4.80;;
5127;SDS011;2582;48.770;9.190;2023-09-30T13:58:21;8.23;;;6.07;;
5127;SDS011;2582;48.770;9.190;2023-09-30T14:00:47;7.90;;;5.50;;
5127;SDS011;2582;48.770;9.190;2023-09-30T14:03:13;8.03;;;5.37;;
5127;SDS011;2582;48.770;9.190;2023-09-30T14:05:38;8.70;;;5.40;;
5127;SDS011;2582;48.770;9.190;2023-09-30T14:08:04;7.67;;;5.27;;
5127;SDS011;2582;48.770;9.190;2023-09-30T14:10:32;7.67;;;5.17;;
5127;SDS011;2582;48.770;9.190;2023-09-30T14:12:58;7.27;;;5.07;;
5127;SDS011;2582;48.770;9.190;2023-09-30T14:15:23;7.60;;;5.30;;
5127;SDS011;2582;48.770;9.190;2023-09-30T14:17:53;7.77;;;5.07;;
5127;SDS011;2582;48.770;9.190;2023-09-30T14:20:23;9.50;;;5.70;;
5127;SDS011;2582;48.770;9.190;2023-09-30T14:22:49;6.80;;;5.37;;
5127;SDS011;2582;48.770;9.190;2023-09-30T14:25:16;6.77;;;4.77;;
5127;SDS011;2582;48.770;9.190;2023-09-30T14:27:44;7.60;;;4.50;;
5127;SDS011;2582;48.770;9.190;2023-09-30T14:30:10;7.50;;;5.30;;
5127;SDS011;2582;48.770;9.190;2023-09-30T14:32:36;9.43;;;6.37;;
5127;SDS011;2582;48.770;9.190;2023-09-30T14:35:02;7.83;;;5.90;;
5127;SDS011;2582;48.770;9.190;2023-09-30T14:37:30;9.63;;;5.70;;
5127;SDS011;2582;48.770;9.190;2023-09-30T14:39:56;6.30;;;4.67;;
5127;SDS011;2582;48.770;9.190;2023-09-30T14:42:21;8.00;;;5.93;;
5127;SDS011;2582;48.770;9.190;2023-09-30T14:44:47;7.33;;;5.50;;
5127;SDS011;2582;48.770;9.190;2023-09-30T14:47:13;8.20;;;5.90;;
5127;SDS011;2582;48.770;9.190;2023-09-30T14:49:38;10.00;;;7.53;;
5127;SDS011;2582;48.770;9.190;2023-09-30T14:52:04;8.63;;;5.10;;
5127;SDS011;2582;48.770;9.190;2023-09-30T14:54:30;7.00;;;5.27;;
5127;SDS011;2582;48.770;9.190;2023-09-30T14:56:56;9.60;;;5.57;;
5127;SDS011;2582;48.770;9.190;2023-09-30T14:59:21;6.93;;;4.70;;
5127;SDS011;2582;48.770;9.190;2023-09-30T15:01:47;7.97;;;5.67;;
5127;SDS011;2582;48.770;9.190;2023-09-30T15:04:13;10.17;;;6.60;;
5127;SDS011;2582;48.770;9.190;2023-09-30T15:06:40;8.53;;;5.27;;
5127;SDS011;2582;48.770;9.190;2023-09-30T15:09:06;9.23;;;5.30;;
5127;SDS011;2582;48.770;9.190;2023-09-30T15:11:34;8.20;;;5.50;;
5127;SDS011;2582;48.770;9.190;2023-09-30T15:14:00;7.97;;;5.57;;
5127;SDS011;2582;48.770;9.190;2023-09-30T15:16:26;7.63;;;5.10;;
5127;SDS011;2582;48.770;9.190;2023-09-30T15:18:51;7.40;;;5.37;;
5127;SDS011;2582;48.770;9.190;2023-09-30T15:21:17;8.37;;;5.80;;
5127;SDS011;2582;48.770;9.190;2023-09-30T15:23:42;10.00;;;6.20;;
5127;SDS011;2582;48.770;9.190;2023-09-30T15:26:09;7.10;;;5.43;;
5127;SDS011;2582;48.770;9.190;2023-09-30T15:28:35;9.43;;;5.67;;
5127;SDS011;2582;48.770;9.190;2023-09-30T15:31:02;6.97;;;5.20;;
5127;SDS011;2582;48.770;9.190;2023-09-30T15:33:28;8.60;;;4.90;;
5127;SDS011;2582;48.770;9.190;2023-09-30T15:35:54;9.80;;;5.50;;